Startzville, Texas
Current Conditions -  °F | °C
As of 1:51 AM on Thursday 27 Nov 2014 (Local Time) from KBAZ Reporting Station
Clear Clear  
Wind Chill: 53°   Ceiling: Unl
Heat Index: 53°   Visibility: 10mi
Dew Point: 34°   Wind: 14mph
Humidity: 48%   Direction: 30°NNE
Pressure: 30.36"   Gusts: NA
Location:  29.8812°N, 98.2387°W
Report Text: KBAZ 270751Z AUTO 03012KT 10SM CLR 12/01 A3036 RMK AO2 SLP275 T01170011
Loading
Personal Weather Stations






























Interactive Weather Map New forecast layout! Learn more

10-Day Weather Forecast

Advertisements
Track Severe Weather on mobile